sensor_id;sensor_type;location;lat;lon;timestamp;P1;durP1;ratioP1;P2;durP2;ratioP2
54865;SDS011;40754;52.094;4.328;2023-08-06T00:00:22;13.20;;;10.18;;
54865;SDS011;40754;52.094;4.328;2023-08-06T00:02:48;13.35;;;9.82;;
54865;SDS011;40754;52.094;4.328;2023-08-06T00:05:14;11.30;;;9.18;;
54865;SDS011;40754;52.094;4.328;2023-08-06T00:07:49;12.18;;;9.80;;
54865;SDS011;40754;52.094;4.328;2023-08-06T00:10:15;13.35;;;10.57;;
54865;SDS011;40754;52.094;4.328;2023-08-06T00:12:41;13.35;;;9.95;;
54865;SDS011;40754;52.094;4.328;2023-08-06T00:15:07;14.45;;;9.48;;
54865;SDS011;40754;52.094;4.328;2023-08-06T00:17:36;12.15;;;9.43;;
54865;SDS011;40754;52.094;4.328;2023-08-06T00:20:02;10.32;;;8.48;;
54865;SDS011;40754;52.094;4.328;2023-08-06T00:22:34;9.60;;;8.38;;
54865;SDS011;40754;52.094;4.328;2023-08-06T00:25:01;12.40;;;9.32;;
54865;SDS011;40754;52.094;4.328;2023-08-06T00:27:27;13.73;;;10.05;;
54865;SDS011;40754;52.094;4.328;2023-08-06T00:29:53;11.40;;;8.43;;
54865;SDS011;40754;52.094;4.328;2023-08-06T00:32:18;12.38;;;9.30;;
54865;SDS011;40754;52.094;4.328;2023-08-06T00:34:44;12.60;;;9.77;;
54865;SDS011;40754;52.094;4.328;2023-08-06T00:37:09;11.45;;;8.70;;
54865;SDS011;40754;52.094;4.328;2023-08-06T00:39:35;14.07;;;9.70;;
54865;SDS011;40754;52.094;4.328;2023-08-06T00:42:00;12.15;;;9.48;;
54865;SDS011;40754;52.094;4.328;2023-08-06T00:44:26;10.93;;;9.43;;
54865;SDS011;40754;52.094;4.328;2023-08-06T00:46:51;12.18;;;9.70;;
54865;SDS011;40754;52.094;4.328;2023-08-06T00:49:17;11.55;;;9.82;;
54865;SDS011;40754;52.094;4.328;2023-08-06T00:51:42;16.33;;;10.73;;
54865;SDS011;40754;52.094;4.328;2023-08-06T00:54:08;14.52;;;10.48;;
54865;SDS011;40754;52.094;4.328;2023-08-06T00:56:34;11.82;;;10.00;;
54865;SDS011;40754;52.094;4.328;2023-08-06T00:59:03;14.82;;;10.30;;
54865;SDS011;40754;52.094;4.328;2023-08-06T01:01:30;11.10;;;9.80;;
54865;SDS011;40754;52.094;4.328;2023-08-06T01:03:55;12.80;;;9.60;;
54865;SDS011;40754;52.094;4.328;2023-08-06T01:06:33;13.18;;;9.23;;
54865;SDS011;40754;52.094;4.328;2023-08-06T01:09:11;14.23;;;9.40;;
54865;SDS011;40754;52.094;4.328;2023-08-06T01:12:05;10.45;;;8.43;;
54865;SDS011;40754;52.094;4.328;2023-08-06T01:17:23;10.23;;;7.40;;
54865;SDS011;40754;52.094;4.328;2023-08-06T01:19:49;9.40;;;6.88;;
54865;SDS011;40754;52.094;4.328;2023-08-06T01:22:14;7.65;;;6.18;;
54865;SDS011;40754;52.094;4.328;2023-08-06T01:24:40;8.70;;;6.35;;
54865;SDS011;40754;52.094;4.328;2023-08-06T01:27:09;9.00;;;6.43;;
54865;SDS011;40754;52.094;4.328;2023-08-06T01:29:43;6.38;;;5.78;;
54865;SDS011;40754;52.094;4.328;2023-08-06T01:32:12;6.45;;;5.82;;
54865;SDS011;40754;52.094;4.328;2023-08-06T01:34:39;7.70;;;6.10;;
54865;SDS011;40754;52.094;4.328;2023-08-06T01:37:06;7.93;;;6.90;;
54865;SDS011;40754;52.094;4.328;2023-08-06T01:39:34;6.30;;;5.65;;
54865;SDS011;40754;52.094;4.328;2023-08-06T01:42:00;7.45;;;5.90;;
54865;SDS011;40754;52.094;4.328;2023-08-06T01:44:25;7.18;;;5.20;;
54865;SDS011;40754;52.094;4.328;2023-08-06T01:46:51;7.40;;;5.70;;
54865;SDS011;40754;52.094;4.328;2023-08-06T01:49:16;5.82;;;5.20;;
54865;SDS011;40754;52.094;4.328;2023-08-06T01:51:42;6.35;;;5.45;;
54865;SDS011;40754;52.094;4.328;2023-08-06T01:54:07;8.65;;;6.13;;
54865;SDS011;40754;52.094;4.328;2023-08-06T01:56:33;8.05;;;5.45;;
54865;SDS011;40754;52.094;4.328;2023-08-06T01:58:58;9.70;;;4.57;;
54865;SDS011;40754;52.094;4.328;2023-08-06T02:01:23;4.82;;;4.18;;
54865;SDS011;40754;52.094;4.328;2023-08-06T02:03:49;6.30;;;3.88;;
54865;SDS011;40754;52.094;4.328;2023-08-06T02:06:14;4.63;;;3.83;;
54865;SDS011;40754;52.094;4.328;2023-08-06T02:08:40;4.30;;;3.90;;
54865;SDS011;40754;52.094;4.328;2023-08-06T02:11:05;3.50;;;3.20;;
54865;SDS011;40754;52.094;4.328;2023-08-06T02:13:31;5.32;;;3.60;;
54865;SDS011;40754;52.094;4.328;2023-08-06T02:15:56;3.72;;;3.30;;
54865;SDS011;40754;52.094;4.328;2023-08-06T02:18:22;3.17;;;2.80;;
54865;SDS011;40754;52.094;4.328;2023-08-06T02:20:57;3.78;;;3.00;;
54865;SDS011;40754;52.094;4.328;2023-08-06T02:23:23;3.10;;;2.67;;
54865;SDS011;40754;52.094;4.328;2023-08-06T02:25:53;4.18;;;2.95;;
54865;SDS011;40754;52.094;4.328;2023-08-06T02:28:26;3.10;;;2.50;;
54865;SDS011;40754;52.094;4.328;2023-08-06T02:30:51;4.28;;;2.70;;
54865;SDS011;40754;52.094;4.328;2023-08-06T02:33:17;4.20;;;3.08;;
54865;SDS011;40754;52.094;4.328;2023-08-06T02:35:42;6.68;;;2.53;;
54865;SDS011;40754;52.094;4.328;2023-08-06T02:38:08;5.50;;;2.97;;
54865;SDS011;40754;52.094;4.328;2023-08-06T02:40:33;3.45;;;2.88;;
54865;SDS011;40754;52.094;4.328;2023-08-06T02:42:59;3.58;;;2.88;;
54865;SDS011;40754;52.094;4.328;2023-08-06T02:45:24;3.40;;;2.50;;
54865;SDS011;40754;52.094;4.328;2023-08-06T02:47:50;3.47;;;2.95;;
54865;SDS011;40754;52.094;4.328;2023-08-06T02:50:15;4.00;;;3.45;;
54865;SDS011;40754;52.094;4.328;2023-08-06T02:52:40;5.60;;;4.28;;
54865;SDS011;40754;52.094;4.328;2023-08-06T02:55:06;6.03;;;5.05;;
54865;SDS011;40754;52.094;4.328;2023-08-06T02:57:32;9.10;;;5.30;;
54865;SDS011;40754;52.094;4.328;2023-08-06T02:59:57;8.82;;;5.10;;
54865;SDS011;40754;52.094;4.328;2023-08-06T03:02:23;8.57;;;5.55;;
54865;SDS011;40754;52.094;4.328;2023-08-06T03:04:48;6.95;;;5.55;;
54865;SDS011;40754;52.094;4.328;2023-08-06T03:07:14;9.77;;;6.50;;
54865;SDS011;40754;52.094;4.328;2023-08-06T03:09:39;11.32;;;5.88;;
54865;SDS011;40754;52.094;4.328;2023-08-06T03:12:05;14.05;;;4.72;;
54865;SDS011;40754;52.094;4.328;2023-08-06T03:14:30;12.23;;;3.95;;
54865;SDS011;40754;52.094;4.328;2023-08-06T03:16:56;6.40;;;2.92;;
54865;SDS011;40754;52.094;4.328;2023-08-06T03:19:21;11.25;;;3.55;;
54865;SDS011;40754;52.094;4.328;2023-08-06T03:21:47;12.15;;;3.88;;
54865;SDS011;40754;52.094;4.328;2023-08-06T03:24:13;11.80;;;3.40;;
54865;SDS011;40754;52.094;4.328;2023-08-06T03:26:39;11.02;;;3.75;;
54865;SDS011;40754;52.094;4.328;2023-08-06T03:29:05;13.18;;;3.90;;
54865;SDS011;40754;52.094;4.328;2023-08-06T03:31:30;13.98;;;3.95;;
54865;SDS011;40754;52.094;4.328;2023-08-06T03:33:56;14.73;;;3.90;;
54865;SDS011;40754;52.094;4.328;2023-08-06T03:36:21;15.13;;;3.75;;
54865;SDS011;40754;52.094;4.328;2023-08-06T03:38:47;11.45;;;3.50;;
54865;SDS011;40754;52.094;4.328;2023-08-06T03:41:12;11.15;;;4.15;;
54865;SDS011;40754;52.094;4.328;2023-08-06T03:43:38;18.90;;;4.32;;
54865;SDS011;40754;52.094;4.328;2023-08-06T03:46:03;12.82;;;3.80;;
54865;SDS011;40754;52.094;4.328;2023-08-06T03:48:29;8.48;;;3.35;;
54865;SDS011;40754;52.094;4.328;2023-08-06T03:50:54;5.75;;;2.72;;
54865;SDS011;40754;52.094;4.328;2023-08-06T03:53:19;7.35;;;3.00;;
54865;SDS011;40754;52.094;4.328;2023-08-06T03:55:45;9.85;;;3.15;;
54865;SDS011;40754;52.094;4.328;2023-08-06T03:58:10;8.07;;;3.58;;
54865;SDS011;40754;52.094;4.328;2023-08-06T04:00:36;8.25;;;3.35;;
54865;SDS011;40754;52.094;4.328;2023-08-06T04:03:01;5.45;;;2.80;;
54865;SDS011;40754;52.094;4.328;2023-08-06T04:05:27;9.65;;;3.83;;
54865;SDS011;40754;52.094;4.328;2023-08-06T04:07:53;5.78;;;3.30;;
54865;SDS011;40754;52.094;4.328;2023-08-06T04:10:18;10.43;;;3.47;;
54865;SDS011;40754;52.094;4.328;2023-08-06T04:12:44;9.00;;;3.38;;
54865;SDS011;40754;52.094;4.328;2023-08-06T04:15:09;7.00;;;3.55;;
54865;SDS011;40754;52.094;4.328;2023-08-06T04:17:35;9.25;;;3.88;;
54865;SDS011;40754;52.094;4.328;2023-08-06T04:20:00;7.57;;;3.92;;
54865;SDS011;40754;52.094;4.328;2023-08-06T04:22:27;7.95;;;4.07;;
54865;SDS011;40754;52.094;4.328;2023-08-06T04:24:52;5.90;;;3.67;;
54865;SDS011;40754;52.094;4.328;2023-08-06T04:27:18;6.32;;;3.97;;
54865;SDS011;40754;52.094;4.328;2023-08-06T04:29:44;9.88;;;4.50;;
54865;SDS011;40754;52.094;4.328;2023-08-06T04:32:10;13.13;;;5.38;;
54865;SDS011;40754;52.094;4.328;2023-08-06T04:34:36;14.68;;;5.35;;
54865;SDS011;40754;52.094;4.328;2023-08-06T04:37:02;14.70;;;5.07;;
54865;SDS011;40754;52.094;4.328;2023-08-06T04:39:27;13.57;;;4.93;;
54865;SDS011;40754;52.094;4.328;2023-08-06T04:41:53;12.50;;;4.85;;
54865;SDS011;40754;52.094;4.328;2023-08-06T04:44:18;13.25;;;4.63;;
54865;SDS011;40754;52.094;4.328;2023-08-06T04:46:44;12.80;;;4.55;;
54865;SDS011;40754;52.094;4.328;2023-08-06T04:49:10;12.48;;;5.03;;
54865;SDS011;40754;52.094;4.328;2023-08-06T04:51:35;11.65;;;5.13;;
54865;SDS011;40754;52.094;4.328;2023-08-06T04:54:01;14.88;;;4.85;;
54865;SDS011;40754;52.094;4.328;2023-08-06T04:56:26;9.13;;;4.50;;
54865;SDS011;40754;52.094;4.328;2023-08-06T04:58:52;14.63;;;3.97;;
54865;SDS011;40754;52.094;4.328;2023-08-06T05:01:18;15.25;;;4.60;;
54865;SDS011;40754;52.094;4.328;2023-08-06T05:03:43;14.57;;;4.13;;
54865;SDS011;40754;52.094;4.328;2023-08-06T05:06:09;12.52;;;3.38;;
54865;SDS011;40754;52.094;4.328;2023-08-06T05:08:35;11.02;;;2.97;;
54865;SDS011;40754;52.094;4.328;2023-08-06T05:11:01;11.93;;;3.72;;
54865;SDS011;40754;52.094;4.328;2023-08-06T05:13:26;9.73;;;3.13;;
54865;SDS011;40754;52.094;4.328;2023-08-06T05:15:55;9.20;;;3.20;;
54865;SDS011;40754;52.094;4.328;2023-08-06T05:18:21;8.88;;;2.95;;
54865;SDS011;40754;52.094;4.328;2023-08-06T05:20:47;10.15;;;3.38;;
54865;SDS011;40754;52.094;4.328;2023-08-06T05:23:12;6.03;;;2.33;;
54865;SDS011;40754;52.094;4.328;2023-08-06T05:25:38;6.13;;;2.58;;
54865;SDS011;40754;52.094;4.328;2023-08-06T05:28:03;4.80;;;2.20;;
54865;SDS011;40754;52.094;4.328;2023-08-06T05:30:29;6.45;;;2.10;;
54865;SDS011;40754;52.094;4.328;2023-08-06T05:32:54;4.30;;;2.00;;
54865;SDS011;40754;52.094;4.328;2023-08-06T05:35:20;8.05;;;2.45;;
54865;SDS011;40754;52.094;4.328;2023-08-06T05:37:46;5.70;;;1.80;;
54865;SDS011;40754;52.094;4.328;2023-08-06T05:40:12;7.10;;;1.88;;
54865;SDS011;40754;52.094;4.328;2023-08-06T05:42:37;8.75;;;2.30;;
54865;SDS011;40754;52.094;4.328;2023-08-06T05:45:03;6.63;;;1.67;;
54865;SDS011;40754;52.094;4.328;2023-08-06T05:47:28;3.40;;;1.38;;
54865;SDS011;40754;52.094;4.328;2023-08-06T05:49:54;6.50;;;1.60;;
54865;SDS011;40754;52.094;4.328;2023-08-06T05:52:19;5.50;;;1.80;;
54865;SDS011;40754;52.094;4.328;2023-08-06T05:54:45;6.57;;;1.65;;
54865;SDS011;40754;52.094;4.328;2023-08-06T05:57:10;6.30;;;1.45;;
54865;SDS011;40754;52.094;4.328;2023-08-06T05:59:36;4.82;;;1.30;;
54865;SDS011;40754;52.094;4.328;2023-08-06T06:02:01;3.78;;;1.75;;
54865;SDS011;40754;52.094;4.328;2023-08-06T06:04:27;11.05;;;2.35;;
54865;SDS011;40754;52.094;4.328;2023-08-06T06:06:53;4.82;;;1.70;;
54865;SDS011;40754;52.094;4.328;2023-08-06T06:09:19;6.10;;;1.85;;
54865;SDS011;40754;52.094;4.328;2023-08-06T06:11:44;7.07;;;2.28;;
54865;SDS011;40754;52.094;4.328;2023-08-06T06:14:10;6.82;;;1.85;;
54865;SDS011;40754;52.094;4.328;2023-08-06T06:16:35;7.55;;;1.73;;
54865;SDS011;40754;52.094;4.328;2023-08-06T06:19:01;2.75;;;1.38;;
54865;SDS011;40754;52.094;4.328;2023-08-06T06:21:26;3.72;;;1.70;;
54865;SDS011;40754;52.094;4.328;2023-08-06T06:23:51;11.70;;;2.22;;
54865;SDS011;40754;52.094;4.328;2023-08-06T06:26:17;4.45;;;2.38;;
54865;SDS011;40754;52.094;4.328;2023-08-06T06:28:43;11.05;;;2.30;;
54865;SDS011;40754;52.094;4.328;2023-08-06T06:31:09;4.80;;;2.13;;
54865;SDS011;40754;52.094;4.328;2023-08-06T06:33:34;6.40;;;2.05;;
54865;SDS011;40754;52.094;4.328;2023-08-06T06:36:00;4.07;;;2.40;;
54865;SDS011;40754;52.094;4.328;2023-08-06T06:38:28;7.40;;;1.98;;
54865;SDS011;40754;52.094;4.328;2023-08-06T06:40:54;6.97;;;2.45;;
54865;SDS011;40754;52.094;4.328;2023-08-06T06:43:20;9.68;;;2.55;;
54865;SDS011;40754;52.094;4.328;2023-08-06T06:45:45;6.53;;;2.75;;
54865;SDS011;40754;52.094;4.328;2023-08-06T06:48:10;6.95;;;3.42;;
54865;SDS011;40754;52.094;4.328;2023-08-06T06:50:36;8.13;;;2.65;;
54865;SDS011;40754;52.094;4.328;2023-08-06T06:53:01;7.32;;;2.88;;
54865;SDS011;40754;52.094;4.328;2023-08-06T06:55:27;6.28;;;2.75;;
54865;SDS011;40754;52.094;4.328;2023-08-06T06:57:53;8.88;;;2.67;;
54865;SDS011;40754;52.094;4.328;2023-08-06T07:00:18;7.90;;;2.58;;
54865;SDS011;40754;52.094;4.328;2023-08-06T07:02:44;6.88;;;2.70;;
54865;SDS011;40754;52.094;4.328;2023-08-06T07:05:09;6.75;;;2.50;;
54865;SDS011;40754;52.094;4.328;2023-08-06T07:07:35;8.13;;;2.80;;
54865;SDS011;40754;52.094;4.328;2023-08-06T07:10:01;7.38;;;2.70;;
54865;SDS011;40754;52.094;4.328;2023-08-06T07:12:27;6.35;;;2.50;;
54865;SDS011;40754;52.094;4.328;2023-08-06T07:14:52;5.88;;;2.30;;
54865;SDS011;40754;52.094;4.328;2023-08-06T07:17:18;7.80;;;2.00;;
54865;SDS011;40754;52.094;4.328;2023-08-06T07:19:44;4.85;;;2.75;;
54865;SDS011;40754;52.094;4.328;2023-08-06T07:22:09;6.43;;;2.70;;
54865;SDS011;40754;52.094;4.328;2023-08-06T07:24:34;6.60;;;2.30;;
54865;SDS011;40754;52.094;4.328;2023-08-06T07:27:00;9.73;;;2.40;;
54865;SDS011;40754;52.094;4.328;2023-08-06T07:29:26;5.97;;;2.28;;
54865;SDS011;40754;52.094;4.328;2023-08-06T07:31:51;6.55;;;2.63;;
54865;SDS011;40754;52.094;4.328;2023-08-06T07:34:17;7.38;;;2.97;;
54865;SDS011;40754;52.094;4.328;2023-08-06T07:36:44;8.43;;;2.10;;
54865;SDS011;40754;52.094;4.328;2023-08-06T07:39:10;8.23;;;2.67;;
54865;SDS011;40754;52.094;4.328;2023-08-06T07:41:35;7.10;;;2.47;;
54865;SDS011;40754;52.094;4.328;2023-08-06T07:44:01;7.97;;;2.38;;
54865;SDS011;40754;52.094;4.328;2023-08-06T07:46:27;3.17;;;2.20;;
54865;SDS011;40754;52.094;4.328;2023-08-06T07:48:52;6.65;;;2.50;;
54865;SDS011;40754;52.094;4.328;2023-08-06T07:51:18;6.10;;;2.55;;
54865;SDS011;40754;52.094;4.328;2023-08-06T07:53:44;7.65;;;2.45;;
54865;SDS011;40754;52.094;4.328;2023-08-06T07:56:10;3.67;;;2.28;;
54865;SDS011;40754;52.094;4.328;2023-08-06T07:58:35;5.75;;;2.25;;
54865;SDS011;40754;52.094;4.328;2023-08-06T08:01:01;7.45;;;2.45;;
54865;SDS011;40754;52.094;4.328;2023-08-06T08:03:26;4.43;;;2.33;;
54865;SDS011;40754;52.094;4.328;2023-08-06T08:05:54;5.85;;;2.45;;
54865;SDS011;40754;52.094;4.328;2023-08-06T08:08:22;3.97;;;2.42;;
54865;SDS011;40754;52.094;4.328;2023-08-06T08:10:48;4.65;;;2.30;;
54865;SDS011;40754;52.094;4.328;2023-08-06T08:13:14;6.90;;;2.63;;
54865;SDS011;40754;52.094;4.328;2023-08-06T08:15:39;4.53;;;2.45;;
54865;SDS011;40754;52.094;4.328;2023-08-06T08:18:05;6.25;;;2.45;;
54865;SDS011;40754;52.094;4.328;2023-08-06T08:20:31;5.88;;;2.22;;
54865;SDS011;40754;52.094;4.328;2023-08-06T08:22:58;10.18;;;5.97;;
54865;SDS011;40754;52.094;4.328;2023-08-06T08:25:24;6.40;;;2.45;;
54865;SDS011;40754;52.094;4.328;2023-08-06T08:27:50;4.10;;;2.05;;
54865;SDS011;40754;52.094;4.328;2023-08-06T08:30:15;6.15;;;2.05;;
54865;SDS011;40754;52.094;4.328;2023-08-06T08:32:41;5.00;;;2.10;;
54865;SDS011;40754;52.094;4.328;2023-08-06T08:35:10;3.53;;;2.13;;
54865;SDS011;40754;52.094;4.328;2023-08-06T08:37:37;4.47;;;2.20;;
54865;SDS011;40754;52.094;4.328;2023-08-06T08:40:04;5.20;;;2.00;;
54865;SDS011;40754;52.094;4.328;2023-08-06T08:42:31;6.50;;;2.53;;
54865;SDS011;40754;52.094;4.328;2023-08-06T08:44:56;4.60;;;1.88;;
54865;SDS011;40754;52.094;4.328;2023-08-06T08:47:21;4.30;;;2.13;;
54865;SDS011;40754;52.094;4.328;2023-08-06T08:49:47;5.00;;;1.65;;
54865;SDS011;40754;52.094;4.328;2023-08-06T08:52:14;5.10;;;2.03;;
54865;SDS011;40754;52.094;4.328;2023-08-06T08:54:40;6.85;;;2.10;;
54865;SDS011;40754;52.094;4.328;2023-08-06T08:57:05;3.67;;;2.00;;
54865;SDS011;40754;52.094;4.328;2023-08-06T08:59:32;5.68;;;1.90;;
54865;SDS011;40754;52.094;4.328;2023-08-06T09:01:58;5.68;;;2.38;;
54865;SDS011;40754;52.094;4.328;2023-08-06T09:04:25;8.50;;;2.10;;
54865;SDS011;40754;52.094;4.328;2023-08-06T09:06:52;7.72;;;2.20;;
54865;SDS011;40754;52.094;4.328;2023-08-06T09:09:26;7.72;;;2.55;;
54865;SDS011;40754;52.094;4.328;2023-08-06T09:12:02;5.30;;;2.33;;
54865;SDS011;40754;52.094;4.328;2023-08-06T09:14:37;4.45;;;1.90;;
54865;SDS011;40754;52.094;4.328;2023-08-06T09:17:03;5.22;;;2.78;;
54865;SDS011;40754;52.094;4.328;2023-08-06T09:19:29;3.70;;;2.20;;
54865;SDS011;40754;52.094;4.328;2023-08-06T09:21:55;7.43;;;2.42;;
54865;SDS011;40754;52.094;4.328;2023-08-06T09:24:21;3.30;;;2.13;;
54865;SDS011;40754;52.094;4.328;2023-08-06T09:26:47;4.45;;;2.33;;
54865;SDS011;40754;52.094;4.328;2023-08-06T09:29:12;3.55;;;1.70;;
54865;SDS011;40754;52.094;4.328;2023-08-06T09:31:45;4.32;;;1.63;;
54865;SDS011;40754;52.094;4.328;2023-08-06T09:36:41;6.78;;;1.67;;
54865;SDS011;40754;52.094;4.328;2023-08-06T09:39:18;3.53;;;1.80;;
54865;SDS011;40754;52.094;4.328;2023-08-06T09:41:44;3.67;;;1.70;;
54865;SDS011;40754;52.094;4.328;2023-08-06T09:44:15;5.55;;;1.70;;
54865;SDS011;40754;52.094;4.328;2023-08-06T09:46:42;3.35;;;1.65;;
54865;SDS011;40754;52.094;4.328;2023-08-06T09:49:08;3.70;;;1.40;;
54865;SDS011;40754;52.094;4.328;2023-08-06T09:51:35;3.55;;;1.80;;
54865;SDS011;40754;52.094;4.328;2023-08-06T09:54:04;2.17;;;1.48;;
54865;SDS011;40754;52.094;4.328;2023-08-06T09:56:30;4.10;;;2.33;;
54865;SDS011;40754;52.094;4.328;2023-08-06T09:59:02;4.68;;;2.28;;
54865;SDS011;40754;52.094;4.328;2023-08-06T10:01:31;3.17;;;1.65;;
54865;SDS011;40754;52.094;4.328;2023-08-06T10:03:58;1.95;;;1.40;;
54865;SDS011;40754;52.094;4.328;2023-08-06T10:06:24;5.50;;;1.90;;
54865;SDS011;40754;52.094;4.328;2023-08-06T10:08:51;4.05;;;2.10;;
54865;SDS011;40754;52.094;4.328;2023-08-06T10:11:16;2.83;;;1.80;;
54865;SDS011;40754;52.094;4.328;2023-08-06T10:13:42;4.70;;;1.77;;
54865;SDS011;40754;52.094;4.328;2023-08-06T10:16:08;4.18;;;1.92;;
54865;SDS011;40754;52.094;4.328;2023-08-06T10:18:35;4.07;;;2.05;;
54865;SDS011;40754;52.094;4.328;2023-08-06T10:21:02;3.97;;;1.70;;
54865;SDS011;40754;52.094;4.328;2023-08-06T10:23:35;3.35;;;1.48;;
54865;SDS011;40754;52.094;4.328;2023-08-06T10:26:03;3.10;;;1.60;;
54865;SDS011;40754;52.094;4.328;2023-08-06T10:28:38;8.27;;;1.90;;
54865;SDS011;40754;52.094;4.328;2023-08-06T10:31:04;5.35;;;2.05;;
54865;SDS011;40754;52.094;4.328;2023-08-06T10:33:43;6.55;;;2.08;;
54865;SDS011;40754;52.094;4.328;2023-08-06T10:36:09;6.03;;;1.95;;
54865;SDS011;40754;52.094;4.328;2023-08-06T10:38:49;3.83;;;1.42;;
54865;SDS011;40754;52.094;4.328;2023-08-06T10:44:06;3.40;;;1.50;;
54865;SDS011;40754;52.094;4.328;2023-08-06T10:46:35;2.28;;;1.50;;
54865;SDS011;40754;52.094;4.328;2023-08-06T10:49:01;4.43;;;1.70;;
54865;SDS011;40754;52.094;4.328;2023-08-06T10:51:26;3.33;;;1.40;;
54865;SDS011;40754;52.094;4.328;2023-08-06T10:53:53;4.40;;;1.63;;
54865;SDS011;40754;52.094;4.328;2023-08-06T10:56:20;3.03;;;1.35;;
54865;SDS011;40754;52.094;4.328;2023-08-06T10:58:56;4.22;;;2.13;;
54865;SDS011;40754;52.094;4.328;2023-08-06T11:01:22;2.13;;;1.35;;
54865;SDS011;40754;52.094;4.328;2023-08-06T11:03:49;4.85;;;1.60;;
54865;SDS011;40754;52.094;4.328;2023-08-06T11:06:22;3.63;;;1.55;;
54865;SDS011;40754;52.094;4.328;2023-08-06T11:08:52;2.15;;;1.35;;
54865;SDS011;40754;52.094;4.328;2023-08-06T11:11:18;6.47;;;1.63;;
54865;SDS011;40754;52.094;4.328;2023-08-06T11:13:48;1.77;;;1.40;;
54865;SDS011;40754;52.094;4.328;2023-08-06T11:16:14;5.22;;;1.92;;
54865;SDS011;40754;52.094;4.328;2023-08-06T11:18:40;4.03;;;1.50;;
54865;SDS011;40754;52.094;4.328;2023-08-06T11:21:09;5.47;;;1.80;;
54865;SDS011;40754;52.094;4.328;2023-08-06T11:23:34;7.25;;;1.83;;
54865;SDS011;40754;52.094;4.328;2023-08-06T11:26:03;3.45;;;2.22;;
54865;SDS011;40754;52.094;4.328;2023-08-06T11:28:29;4.90;;;1.67;;
54865;SDS011;40754;52.094;4.328;2023-08-06T11:30:55;4.35;;;1.67;;
54865;SDS011;40754;52.094;4.328;2023-08-06T11:33:22;2.10;;;1.35;;
54865;SDS011;40754;52.094;4.328;2023-08-06T11:35:50;2.72;;;1.35;;
54865;SDS011;40754;52.094;4.328;2023-08-06T11:38:16;3.88;;;1.23;;
54865;SDS011;40754;52.094;4.328;2023-08-06T11:40:43;1.38;;;0.70;;
54865;SDS011;40754;52.094;4.328;2023-08-06T11:43:12;8.38;;;1.40;;
54865;SDS011;40754;52.094;4.328;2023-08-06T11:45:38;3.17;;;1.30;;
54865;SDS011;40754;52.094;4.328;2023-08-06T11:48:06;2.70;;;1.17;;
54865;SDS011;40754;52.094;4.328;2023-08-06T11:50:38;4.88;;;1.65;;
54865;SDS011;40754;52.094;4.328;2023-08-06T11:53:04;5.53;;;1.55;;
54865;SDS011;40754;52.094;4.328;2023-08-06T11:55:30;6.25;;;1.17;;
54865;SDS011;40754;52.094;4.328;2023-08-06T11:57:56;3.38;;;1.40;;
54865;SDS011;40754;52.094;4.328;2023-08-06T12:00:23;3.65;;;1.20;;
54865;SDS011;40754;52.094;4.328;2023-08-06T12:02:51;5.95;;;1.02;;
54865;SDS011;40754;52.094;4.328;2023-08-06T12:05:20;5.53;;;1.17;;
54865;SDS011;40754;52.094;4.328;2023-08-06T12:07:57;5.78;;;1.23;;
54865;SDS011;40754;52.094;4.328;2023-08-06T12:10:24;2.10;;;1.20;;
54865;SDS011;40754;52.094;4.328;2023-08-06T12:12:52;4.97;;;1.40;;
54865;SDS011;40754;52.094;4.328;2023-08-06T12:15:18;8.20;;;1.42;;
54865;SDS011;40754;52.094;4.328;2023-08-06T12:17:44;5.28;;;1.33;;
54865;SDS011;40754;52.094;4.328;2023-08-06T12:20:09;3.65;;;1.05;;
54865;SDS011;40754;52.094;4.328;2023-08-06T12:22:35;6.68;;;1.70;;
54865;SDS011;40754;52.094;4.328;2023-08-06T12:25:04;3.83;;;1.08;;
54865;SDS011;40754;52.094;4.328;2023-08-06T12:27:33;5.93;;;1.05;;
54865;SDS011;40754;52.094;4.328;2023-08-06T12:30:05;5.38;;;1.08;;
54865;SDS011;40754;52.094;4.328;2023-08-06T12:32:31;2.72;;;0.90;;
54865;SDS011;40754;52.094;4.328;2023-08-06T12:34:58;4.57;;;0.82;;
54865;SDS011;40754;52.094;4.328;2023-08-06T12:37:24;3.17;;;0.80;;
54865;SDS011;40754;52.094;4.328;2023-08-06T12:39:50;5.40;;;1.00;;
54865;SDS011;40754;52.094;4.328;2023-08-06T12:42:15;7.03;;;0.90;;
54865;SDS011;40754;52.094;4.328;2023-08-06T12:44:41;1.40;;;0.60;;
54865;SDS011;40754;52.094;4.328;2023-08-06T12:47:09;3.58;;;0.88;;
54865;SDS011;40754;52.094;4.328;2023-08-06T12:49:35;6.10;;;0.98;;
54865;SDS011;40754;52.094;4.328;2023-08-06T12:52:01;3.20;;;1.00;;
54865;SDS011;40754;52.094;4.328;2023-08-06T12:54:27;4.80;;;0.90;;
54865;SDS011;40754;52.094;4.328;2023-08-06T12:56:53;5.40;;;1.13;;
54865;SDS011;40754;52.094;4.328;2023-08-06T12:59:18;7.65;;;1.55;;
54865;SDS011;40754;52.094;4.328;2023-08-06T13:01:44;5.47;;;1.23;;
54865;SDS011;40754;52.094;4.328;2023-08-06T13:04:10;7.15;;;1.38;;
54865;SDS011;40754;52.094;4.328;2023-08-06T13:06:37;4.47;;;1.55;;
54865;SDS011;40754;52.094;4.328;2023-08-06T13:09:04;2.80;;;1.13;;
54865;SDS011;40754;52.094;4.328;2023-08-06T13:11:30;11.18;;;2.25;;
54865;SDS011;40754;52.094;4.328;2023-08-06T13:13:59;10.75;;;2.50;;
54865;SDS011;40754;52.094;4.328;2023-08-06T13:16:28;12.88;;;2.75;;
54865;SDS011;40754;52.094;4.328;2023-08-06T13:18:54;15.13;;;2.03;;
54865;SDS011;40754;52.094;4.328;2023-08-06T13:21:19;12.70;;;2.47;;
54865;SDS011;40754;52.094;4.328;2023-08-06T13:23:45;14.38;;;2.15;;
54865;SDS011;40754;52.094;4.328;2023-08-06T13:26:10;13.20;;;2.72;;
54865;SDS011;40754;52.094;4.328;2023-08-06T13:28:36;12.43;;;2.28;;
54865;SDS011;40754;52.094;4.328;2023-08-06T13:31:01;22.92;;;3.33;;
54865;SDS011;40754;52.094;4.328;2023-08-06T13:33:30;10.00;;;2.28;;
54865;SDS011;40754;52.094;4.328;2023-08-06T13:35:58;13.93;;;2.70;;
54865;SDS011;40754;52.094;4.328;2023-08-06T13:38:23;18.38;;;3.13;;
54865;SDS011;40754;52.094;4.328;2023-08-06T13:40:49;14.27;;;2.97;;
54865;SDS011;40754;52.094;4.328;2023-08-06T13:43:14;15.80;;;2.60;;
54865;SDS011;40754;52.094;4.328;2023-08-06T13:45:42;12.10;;;2.22;;
54865;SDS011;40754;52.094;4.328;2023-08-06T13:48:07;9.63;;;2.03;;
54865;SDS011;40754;52.094;4.328;2023-08-06T13:50:34;9.38;;;2.22;;
54865;SDS011;40754;52.094;4.328;2023-08-06T13:53:01;10.65;;;2.17;;
54865;SDS011;40754;52.094;4.328;2023-08-06T13:55:27;12.55;;;2.20;;
54865;SDS011;40754;52.094;4.328;2023-08-06T13:57:53;14.63;;;2.80;;
54865;SDS011;40754;52.094;4.328;2023-08-06T14:00:18;16.88;;;2.45;;
54865;SDS011;40754;52.094;4.328;2023-08-06T14:02:44;15.90;;;2.40;;
54865;SDS011;40754;52.094;4.328;2023-08-06T14:05:09;17.20;;;2.38;;
54865;SDS011;40754;52.094;4.328;2023-08-06T14:07:35;10.07;;;1.65;;
54865;SDS011;40754;52.094;4.328;2023-08-06T14:10:00;7.47;;;1.83;;
54865;SDS011;40754;52.094;4.328;2023-08-06T14:12:26;12.90;;;2.17;;
54865;SDS011;40754;52.094;4.328;2023-08-06T14:14:51;10.48;;;2.30;;
54865;SDS011;40754;52.094;4.328;2023-08-06T14:17:17;9.70;;;2.22;;
54865;SDS011;40754;52.094;4.328;2023-08-06T14:19:42;15.30;;;2.70;;
54865;SDS011;40754;52.094;4.328;2023-08-06T14:22:08;11.07;;;2.20;;
54865;SDS011;40754;52.094;4.328;2023-08-06T14:24:33;4.75;;;1.75;;
54865;SDS011;40754;52.094;4.328;2023-08-06T14:26:59;12.85;;;2.70;;
54865;SDS011;40754;52.094;4.328;2023-08-06T14:29:24;13.20;;;3.00;;
54865;SDS011;40754;52.094;4.328;2023-08-06T14:31:50;12.82;;;2.60;;
54865;SDS011;40754;52.094;4.328;2023-08-06T14:34:16;11.90;;;2.08;;
54865;SDS011;40754;52.094;4.328;2023-08-06T14:36:41;9.63;;;2.30;;
54865;SDS011;40754;52.094;4.328;2023-08-06T14:39:07;10.15;;;2.22;;
54865;SDS011;40754;52.094;4.328;2023-08-06T14:41:33;12.48;;;2.40;;
54865;SDS011;40754;52.094;4.328;2023-08-06T14:43:58;14.38;;;3.08;;
54865;SDS011;40754;52.094;4.328;2023-08-06T14:46:24;13.20;;;2.92;;